sensor_id;sensor_type;location;lat;lon;timestamp;temperature;humidity
33927;DHT22;20485;50.992;5.550;2023-04-09T00:02:10;8.20;99.90
33927;DHT22;20485;50.992;5.550;2023-04-09T00:04:36;8.20;99.90
33927;DHT22;20485;50.992;5.550;2023-04-09T00:07:01;8.10;99.90
33927;DHT22;20485;50.992;5.550;2023-04-09T00:09:27;8.80;99.90
33927;DHT22;20485;50.992;5.550;2023-04-09T00:11:53;8.10;99.90
33927;DHT22;20485;50.992;5.550;2023-04-09T00:14:18;8.00;99.90
33927;DHT22;20485;50.992;5.550;2023-04-09T00:16:44;7.90;99.90
33927;DHT22;20485;50.992;5.550;2023-04-09T00:19:10;7.90;99.90
33927;DHT22;20485;50.992;5.550;2023-04-09T00:21:36;7.70;99.90
33927;DHT22;20485;50.992;5.550;2023-04-09T00:24:02;7.60;99.90
33927;DHT22;20485;50.992;5.550;2023-04-09T00:26:28;7.60;99.90
33927;DHT22;20485;50.992;5.550;2023-04-09T00:28:53;7.40;99.90
33927;DHT22;20485;50.992;5.550;2023-04-09T00:31:19;7.40;99.90
33927;DHT22;20485;50.992;5.550;2023-04-09T00:33:45;7.30;99.90
33927;DHT22;20485;50.992;5.550;2023-04-09T00:36:11;7.20;99.90
33927;DHT22;20485;50.992;5.550;2023-04-09T00:38:36;7.10;99.90
33927;DHT22;20485;50.992;5.550;2023-04-09T00:41:02;7.00;99.90
33927;DHT22;20485;50.992;5.550;2023-04-09T00:43:28;6.90;99.90
33927;DHT22;20485;50.992;5.550;2023-04-09T00:45:54;6.80;99.90
33927;DHT22;20485;50.992;5.550;2023-04-09T00:48:20;6.80;99.90
33927;DHT22;20485;50.992;5.550;2023-04-09T00:50:46;6.80;99.90
33927;DHT22;20485;50.992;5.550;2023-04-09T00:53:13;6.70;99.90
33927;DHT22;20485;50.992;5.550;2023-04-09T00:55:40;6.60;99.90
33927;DHT22;20485;50.992;5.550;2023-04-09T00:58:10;6.50;99.90
33927;DHT22;20485;50.992;5.550;2023-04-09T01:00:35;6.50;99.90
33927;DHT22;20485;50.992;5.550;2023-04-09T01:03:03;6.50;99.90
33927;DHT22;20485;50.992;5.550;2023-04-09T01:16:15;6.20;99.90
33927;DHT22;20485;50.992;5.550;2023-04-09T01:18:55;6.10;99.90
33927;DHT22;20485;50.992;5.550;2023-04-09T01:21:25;6.00;99.90
33927;DHT22;20485;50.992;5.550;2023-04-09T01:27:05;6.00;99.90
33927;DHT22;20485;50.992;5.550;2023-04-09T01:29:33;5.90;99.90
33927;DHT22;20485;50.992;5.550;2023-04-09T01:32:01;6.00;99.90
33927;DHT22;20485;50.992;5.550;2023-04-09T01:34:27;5.90;99.90
33927;DHT22;20485;50.992;5.550;2023-04-09T01:36:57;5.90;99.90
33927;DHT22;20485;50.992;5.550;2023-04-09T01:39:23;5.70;99.90
33927;DHT22;20485;50.992;5.550;2023-04-09T01:41:49;5.70;99.90
33927;DHT22;20485;50.992;5.550;2023-04-09T01:44:16;5.60;99.90
33927;DHT22;20485;50.992;5.550;2023-04-09T01:46:42;5.60;99.90
33927;DHT22;20485;50.992;5.550;2023-04-09T01:49:10;5.50;99.90
33927;DHT22;20485;50.992;5.550;2023-04-09T01:51:36;6.40;99.90
33927;DHT22;20485;50.992;5.550;2023-04-09T01:54:03;5.50;99.90
33927;DHT22;20485;50.992;5.550;2023-04-09T01:56:46;5.50;99.90
33927;DHT22;20485;50.992;5.550;2023-04-09T01:59:11;5.40;99.90
33927;DHT22;20485;50.992;5.550;2023-04-09T02:01:44;5.30;99.90
33927;DHT22;20485;50.992;5.550;2023-04-09T02:04:23;5.30;99.90
33927;DHT22;20485;50.992;5.550;2023-04-09T02:09:23;5.30;99.90
33927;DHT22;20485;50.992;5.550;2023-04-09T02:11:49;6.40;99.90
33927;DHT22;20485;50.992;5.550;2023-04-09T02:14:17;5.10;99.90
33927;DHT22;20485;50.992;5.550;2023-04-09T02:16:45;5.10;99.90
33927;DHT22;20485;50.992;5.550;2023-04-09T02:19:11;5.00;99.90
33927;DHT22;20485;50.992;5.550;2023-04-09T02:21:37;5.00;99.90
33927;DHT22;20485;50.992;5.550;2023-04-09T02:24:02;4.90;99.90
33927;DHT22;20485;50.992;5.550;2023-04-09T02:26:28;4.90;99.90
33927;DHT22;20485;50.992;5.550;2023-04-09T02:28:54;4.90;99.90
33927;DHT22;20485;50.992;5.550;2023-04-09T02:31:20;4.90;99.90
33927;DHT22;20485;50.992;5.550;2023-04-09T02:33:45;4.90;99.90
33927;DHT22;20485;50.992;5.550;2023-04-09T02:36:11;4.90;99.90
33927;DHT22;20485;50.992;5.550;2023-04-09T02:38:40;4.80;99.90
33927;DHT22;20485;50.992;5.550;2023-04-09T02:41:06;4.80;99.90
33927;DHT22;20485;50.992;5.550;2023-04-09T02:43:32;4.80;99.90
33927;DHT22;20485;50.992;5.550;2023-04-09T02:45:57;5.00;99.90
33927;DHT22;20485;50.992;5.550;2023-04-09T02:48:26;4.70;99.90
33927;DHT22;20485;50.992;5.550;2023-04-09T02:50:52;4.70;99.90
33927;DHT22;20485;50.992;5.550;2023-04-09T02:53:17;4.70;99.90
33927;DHT22;20485;50.992;5.550;2023-04-09T02:55:43;4.60;99.90
33927;DHT22;20485;50.992;5.550;2023-04-09T02:58:09;4.50;99.90
33927;DHT22;20485;50.992;5.550;2023-04-09T03:00:37;4.50;99.90
33927;DHT22;20485;50.992;5.550;2023-04-09T03:03:02;4.50;99.90
33927;DHT22;20485;50.992;5.550;2023-04-09T03:05:28;4.50;99.90
33927;DHT22;20485;50.992;5.550;2023-04-09T03:07:53;4.50;99.90
33927;DHT22;20485;50.992;5.550;2023-04-09T03:10:19;4.50;99.90
33927;DHT22;20485;50.992;5.550;2023-04-09T03:12:45;4.40;99.90
33927;DHT22;20485;50.992;5.550;2023-04-09T03:15:12;4.40;99.90
33927;DHT22;20485;50.992;5.550;2023-04-09T03:17:38;4.30;99.90
33927;DHT22;20485;50.992;5.550;2023-04-09T03:20:05;4.20;99.90
33927;DHT22;20485;50.992;5.550;2023-04-09T03:22:35;4.20;99.90
33927;DHT22;20485;50.992;5.550;2023-04-09T03:25:01;4.20;99.90
33927;DHT22;20485;50.992;5.550;2023-04-09T03:27:28;4.10;99.90
33927;DHT22;20485;50.992;5.550;2023-04-09T03:29:56;6.10;99.90
33927;DHT22;20485;50.992;5.550;2023-04-09T03:32:22;4.10;99.90
33927;DHT22;20485;50.992;5.550;2023-04-09T03:34:48;4.10;99.90
33927;DHT22;20485;50.992;5.550;2023-04-09T03:37:13;4.80;99.90
33927;DHT22;20485;50.992;5.550;2023-04-09T03:39:39;4.10;99.90
33927;DHT22;20485;50.992;5.550;2023-04-09T03:42:05;4.00;99.90
33927;DHT22;20485;50.992;5.550;2023-04-09T03:44:30;3.90;99.90
33927;DHT22;20485;50.992;5.550;2023-04-09T03:46:56;3.90;99.90
33927;DHT22;20485;50.992;5.550;2023-04-09T03:49:22;3.90;99.90
33927;DHT22;20485;50.992;5.550;2023-04-09T03:51:47;3.80;99.90
33927;DHT22;20485;50.992;5.550;2023-04-09T03:54:13;3.80;99.90
33927;DHT22;20485;50.992;5.550;2023-04-09T03:56:39;4.10;99.90
33927;DHT22;20485;50.992;5.550;2023-04-09T03:59:05;4.90;99.90
33927;DHT22;20485;50.992;5.550;2023-04-09T04:01:30;3.80;99.90
33927;DHT22;20485;50.992;5.550;2023-04-09T04:03:56;3.70;99.90
33927;DHT22;20485;50.992;5.550;2023-04-09T04:06:22;3.70;99.90
33927;DHT22;20485;50.992;5.550;2023-04-09T04:08:47;3.70;99.90
33927;DHT22;20485;50.992;5.550;2023-04-09T04:11:13;3.60;99.90
33927;DHT22;20485;50.992;5.550;2023-04-09T04:13:39;3.70;99.90
33927;DHT22;20485;50.992;5.550;2023-04-09T04:16:08;3.70;99.90
33927;DHT22;20485;50.992;5.550;2023-04-09T04:18:34;3.70;99.90
33927;DHT22;20485;50.992;5.550;2023-04-09T04:21:00;3.70;99.90
33927;DHT22;20485;50.992;5.550;2023-04-09T04:23:26;3.70;99.90
33927;DHT22;20485;50.992;5.550;2023-04-09T04:25:51;3.60;99.90
33927;DHT22;20485;50.992;5.550;2023-04-09T04:28:17;3.60;99.90
33927;DHT22;20485;50.992;5.550;2023-04-09T04:30:43;3.60;99.90
33927;DHT22;20485;50.992;5.550;2023-04-09T04:33:09;3.70;99.90
33927;DHT22;20485;50.992;5.550;2023-04-09T04:35:34;3.70;99.90
33927;DHT22;20485;50.992;5.550;2023-04-09T04:38:00;3.60;99.90
33927;DHT22;20485;50.992;5.550;2023-04-09T04:40:26;3.60;99.90
33927;DHT22;20485;50.992;5.550;2023-04-09T04:42:52;4.50;99.90
33927;DHT22;20485;50.992;5.550;2023-04-09T04:45:17;3.40;99.90
33927;DHT22;20485;50.992;5.550;2023-04-09T04:47:43;3.40;99.90
33927;DHT22;20485;50.992;5.550;2023-04-09T04:50:09;3.40;99.90
33927;DHT22;20485;50.992;5.550;2023-04-09T04:52:35;3.40;99.90
33927;DHT22;20485;50.992;5.550;2023-04-09T04:55:01;3.40;99.90
33927;DHT22;20485;50.992;5.550;2023-04-09T04:57:27;3.30;99.90
33927;DHT22;20485;50.992;5.550;2023-04-09T04:59:52;3.30;99.90
33927;DHT22;20485;50.992;5.550;2023-04-09T05:02:18;3.30;99.90
33927;DHT22;20485;50.992;5.550;2023-04-09T05:04:43;3.30;99.90
33927;DHT22;20485;50.992;5.550;2023-04-09T05:07:09;3.30;99.90
33927;DHT22;20485;50.992;5.550;2023-04-09T05:09:35;3.30;99.90
33927;DHT22;20485;50.992;5.550;2023-04-09T05:12:01;3.20;99.90
33927;DHT22;20485;50.992;5.550;2023-04-09T05:14:26;3.30;99.90
33927;DHT22;20485;50.992;5.550;2023-04-09T05:16:52;3.20;99.90
33927;DHT22;20485;50.992;5.550;2023-04-09T05:19:18;3.20;99.90
33927;DHT22;20485;50.992;5.550;2023-04-09T05:21:43;3.20;99.90
33927;DHT22;20485;50.992;5.550;2023-04-09T05:24:09;3.20;99.90
33927;DHT22;20485;50.992;5.550;2023-04-09T05:26:35;3.20;99.90
33927;DHT22;20485;50.992;5.550;2023-04-09T05:29:02;3.20;99.90
33927;DHT22;20485;50.992;5.550;2023-04-09T05:31:27;3.10;99.90
33927;DHT22;20485;50.992;5.550;2023-04-09T05:33:53;3.10;99.90
33927;DHT22;20485;50.992;5.550;2023-04-09T05:36:19;3.20;99.90
33927;DHT22;20485;50.992;5.550;2023-04-09T05:38:48;3.20;99.90
33927;DHT22;20485;50.992;5.550;2023-04-09T05:41:14;3.30;99.90
33927;DHT22;20485;50.992;5.550;2023-04-09T05:43:39;3.30;99.90
33927;DHT22;20485;50.992;5.550;2023-04-09T05:46:07;3.30;99.90
33927;DHT22;20485;50.992;5.550;2023-04-09T05:48:35;3.40;99.90
33927;DHT22;20485;50.992;5.550;2023-04-09T05:51:01;3.50;99.90
33927;DHT22;20485;50.992;5.550;2023-04-09T05:53:27;3.50;99.90
33927;DHT22;20485;50.992;5.550;2023-04-09T05:55:52;3.60;99.90
33927;DHT22;20485;50.992;5.550;2023-04-09T05:58:18;3.60;99.90
33927;DHT22;20485;50.992;5.550;2023-04-09T06:00:44;3.70;99.90
33927;DHT22;20485;50.992;5.550;2023-04-09T06:03:10;3.70;99.90
33927;DHT22;20485;50.992;5.550;2023-04-09T06:05:35;3.70;99.90
33927;DHT22;20485;50.992;5.550;2023-04-09T06:08:01;4.40;99.90
33927;DHT22;20485;50.992;5.550;2023-04-09T06:10:27;3.90;99.90
33927;DHT22;20485;50.992;5.550;2023-04-09T06:12:52;3.90;99.90
33927;DHT22;20485;50.992;5.550;2023-04-09T06:15:18;4.00;99.90
33927;DHT22;20485;50.992;5.550;2023-04-09T06:17:45;4.10;99.90
33927;DHT22;20485;50.992;5.550;2023-04-09T06:20:11;4.10;99.90
33927;DHT22;20485;50.992;5.550;2023-04-09T06:22:36;4.20;99.90
33927;DHT22;20485;50.992;5.550;2023-04-09T06:25:02;4.30;99.90
33927;DHT22;20485;50.992;5.550;2023-04-09T06:27:28;4.30;99.90
33927;DHT22;20485;50.992;5.550;2023-04-09T06:29:53;4.30;99.90
33927;DHT22;20485;50.992;5.550;2023-04-09T06:32:19;4.30;99.90
33927;DHT22;20485;50.992;5.550;2023-04-09T06:34:45;5.80;99.90
33927;DHT22;20485;50.992;5.550;2023-04-09T06:37:11;4.60;99.90
33927;DHT22;20485;50.992;5.550;2023-04-09T06:39:37;4.50;99.90
33927;DHT22;20485;50.992;5.550;2023-04-09T06:42:02;4.70;99.90
33927;DHT22;20485;50.992;5.550;2023-04-09T06:44:29;4.90;99.90
33927;DHT22;20485;50.992;5.550;2023-04-09T06:46:55;5.00;99.90
33927;DHT22;20485;50.992;5.550;2023-04-09T06:49:21;6.00;99.90
33927;DHT22;20485;50.992;5.550;2023-04-09T06:51:46;5.20;99.90
33927;DHT22;20485;50.992;5.550;2023-04-09T06:54:12;5.30;99.90
33927;DHT22;20485;50.992;5.550;2023-04-09T06:56:38;5.40;99.90
33927;DHT22;20485;50.992;5.550;2023-04-09T06:59:04;5.60;99.90
33927;DHT22;20485;50.992;5.550;2023-04-09T07:01:29;5.60;99.90
33927;DHT22;20485;50.992;5.550;2023-04-09T07:03:55;5.80;99.90
33927;DHT22;20485;50.992;5.550;2023-04-09T07:06:21;6.00;99.90
33927;DHT22;20485;50.992;5.550;2023-04-09T07:08:47;6.10;99.90
33927;DHT22;20485;50.992;5.550;2023-04-09T07:11:12;6.20;99.90
33927;DHT22;20485;50.992;5.550;2023-04-09T07:13:41;6.30;99.90
33927;DHT22;20485;50.992;5.550;2023-04-09T07:16:07;6.50;99.90
33927;DHT22;20485;50.992;5.550;2023-04-09T07:18:33;6.60;99.90
33927;DHT22;20485;50.992;5.550;2023-04-09T07:20:58;6.70;99.90
33927;DHT22;20485;50.992;5.550;2023-04-09T07:23:24;6.70;99.90
33927;DHT22;20485;50.992;5.550;2023-04-09T07:25:50;6.80;99.90
33927;DHT22;20485;50.992;5.550;2023-04-09T07:28:16;6.90;99.90
33927;DHT22;20485;50.992;5.550;2023-04-09T07:30:42;7.10;99.90
33927;DHT22;20485;50.992;5.550;2023-04-09T07:33:08;7.20;99.90
33927;DHT22;20485;50.992;5.550;2023-04-09T07:35:33;7.30;99.90
33927;DHT22;20485;50.992;5.550;2023-04-09T07:37:59;7.30;99.90
33927;DHT22;20485;50.992;5.550;2023-04-09T07:40:25;7.40;99.90
33927;DHT22;20485;50.992;5.550;2023-04-09T07:42:51;7.60;99.90
33927;DHT22;20485;50.992;5.550;2023-04-09T07:45:18;7.60;99.90
33927;DHT22;20485;50.992;5.550;2023-04-09T07:47:44;7.80;99.90
33927;DHT22;20485;50.992;5.550;2023-04-09T07:50:10;7.80;99.90
33927;DHT22;20485;50.992;5.550;2023-04-09T07:52:36;7.90;99.90
33927;DHT22;20485;50.992;5.550;2023-04-09T07:55:02;8.00;99.90
33927;DHT22;20485;50.992;5.550;2023-04-09T07:57:30;8.10;99.90
33927;DHT22;20485;50.992;5.550;2023-04-09T07:59:57;8.10;99.90
33927;DHT22;20485;50.992;5.550;2023-04-09T08:02:23;8.20;99.90
33927;DHT22;20485;50.992;5.550;2023-04-09T08:04:48;8.40;99.90
33927;DHT22;20485;50.992;5.550;2023-04-09T08:07:15;8.50;99.90
33927;DHT22;20485;50.992;5.550;2023-04-09T08:09:40;8.70;99.90
33927;DHT22;20485;50.992;5.550;2023-04-09T08:12:06;8.80;99.90
33927;DHT22;20485;50.992;5.550;2023-04-09T08:14:32;8.90;99.90
33927;DHT22;20485;50.992;5.550;2023-04-09T08:16:58;8.90;99.90
33927;DHT22;20485;50.992;5.550;2023-04-09T08:19:33;9.10;99.90
33927;DHT22;20485;50.992;5.550;2023-04-09T08:22:00;9.10;99.90
33927;DHT22;20485;50.992;5.550;2023-04-09T08:24:26;9.30;99.90
33927;DHT22;20485;50.992;5.550;2023-04-09T08:26:52;9.50;99.90
33927;DHT22;20485;50.992;5.550;2023-04-09T08:29:19;9.60;99.90
33927;DHT22;20485;50.992;5.550;2023-04-09T08:31:44;9.60;99.90
33927;DHT22;20485;50.992;5.550;2023-04-09T08:34:11;9.80;99.90
33927;DHT22;20485;50.992;5.550;2023-04-09T08:36:37;9.90;99.90
33927;DHT22;20485;50.992;5.550;2023-04-09T08:39:03;10.10;99.90
33927;DHT22;20485;50.992;5.550;2023-04-09T08:41:29;10.10;99.90
33927;DHT22;20485;50.992;5.550;2023-04-09T08:43:56;10.00;99.90
33927;DHT22;20485;50.992;5.550;2023-04-09T08:46:22;10.00;99.90
33927;DHT22;20485;50.992;5.550;2023-04-09T08:48:50;10.10;99.90
33927;DHT22;20485;50.992;5.550;2023-04-09T08:51:20;10.20;99.90
33927;DHT22;20485;50.992;5.550;2023-04-09T08:53:48;10.30;99.90
33927;DHT22;20485;50.992;5.550;2023-04-09T08:56:17;10.40;99.90
33927;DHT22;20485;50.992;5.550;2023-04-09T08:58:43;10.50;99.90
33927;DHT22;20485;50.992;5.550;2023-04-09T09:01:20;10.60;99.90
33927;DHT22;20485;50.992;5.550;2023-04-09T09:04:03;10.80;99.90
33927;DHT22;20485;50.992;5.550;2023-04-09T09:06:30;10.80;99.90
33927;DHT22;20485;50.992;5.550;2023-04-09T09:09:11;10.90;99.90
33927;DHT22;20485;50.992;5.550;2023-04-09T09:11:45;11.10;99.90
33927;DHT22;20485;50.992;5.550;2023-04-09T09:14:13;11.20;99.90
33927;DHT22;20485;50.992;5.550;2023-04-09T09:16:41;11.40;99.90
33927;DHT22;20485;50.992;5.550;2023-04-09T09:19:28;11.50;99.90
33927;DHT22;20485;50.992;5.550;2023-04-09T09:21:59;11.60;99.90
33927;DHT22;20485;50.992;5.550;2023-04-09T09:24:26;11.80;99.90
33927;DHT22;20485;50.992;5.550;2023-04-09T09:26:52;11.90;99.90
33927;DHT22;20485;50.992;5.550;2023-04-09T09:29:24;12.00;99.90
33927;DHT22;20485;50.992;5.550;2023-04-09T09:31:51;12.10;99.90
33927;DHT22;20485;50.992;5.550;2023-04-09T09:34:18;12.30;99.90
33927;DHT22;20485;50.992;5.550;2023-04-09T09:36:45;12.20;99.90
33927;DHT22;20485;50.992;5.550;2023-04-09T09:39:12;12.20;99.90
33927;DHT22;20485;50.992;5.550;2023-04-09T09:41:41;12.40;99.90
33927;DHT22;20485;50.992;5.550;2023-04-09T09:44:08;12.60;99.90
33927;DHT22;20485;50.992;5.550;2023-04-09T09:46:39;12.70;99.90
33927;DHT22;20485;50.992;5.550;2023-04-09T09:49:06;12.80;99.90
33927;DHT22;20485;50.992;5.550;2023-04-09T09:51:34;12.60;99.90
33927;DHT22;20485;50.992;5.550;2023-04-09T09:54:01;12.40;99.90
33927;DHT22;20485;50.992;5.550;2023-04-09T09:56:30;12.30;99.90
33927;DHT22;20485;50.992;5.550;2023-04-09T09:59:09;12.30;99.90
33927;DHT22;20485;50.992;5.550;2023-04-09T10:01:37;12.20;99.90
33927;DHT22;20485;50.992;5.550;2023-04-09T10:04:05;12.20;99.90
33927;DHT22;20485;50.992;5.550;2023-04-09T10:06:42;12.20;99.90
33927;DHT22;20485;50.992;5.550;2023-04-09T10:09:09;12.00;99.90
33927;DHT22;20485;50.992;5.550;2023-04-09T10:11:36;12.20;99.90
33927;DHT22;20485;50.992;5.550;2023-04-09T10:14:02;12.30;99.90
33927;DHT22;20485;50.992;5.550;2023-04-09T10:16:29;12.60;99.90
33927;DHT22;20485;50.992;5.550;2023-04-09T10:18:57;12.70;99.90
33927;DHT22;20485;50.992;5.550;2023-04-09T10:24:04;13.10;99.90
33927;DHT22;20485;50.992;5.550;2023-04-09T10:26:32;13.00;99.90
33927;DHT22;20485;50.992;5.550;2023-04-09T10:29:15;13.00;99.90
33927;DHT22;20485;50.992;5.550;2023-04-09T10:32:02;13.10;99.90
33927;DHT22;20485;50.992;5.550;2023-04-09T10:34:28;13.20;99.90
33927;DHT22;20485;50.992;5.550;2023-04-09T10:36:57;13.10;99.90
33927;DHT22;20485;50.992;5.550;2023-04-09T10:39:29;13.10;99.90
33927;DHT22;20485;50.992;5.550;2023-04-09T10:41:57;13.20;99.90
33927;DHT22;20485;50.992;5.550;2023-04-09T10:44:25;13.30;99.90
33927;DHT22;20485;50.992;5.550;2023-04-09T10:46:55;13.50;99.90
33927;DHT22;20485;50.992;5.550;2023-04-09T10:49:22;13.80;99.90
33927;DHT22;20485;50.992;5.550;2023-04-09T10:51:52;14.20;99.90
33927;DHT22;20485;50.992;5.550;2023-04-09T10:59:35;14.70;99.90
33927;DHT22;20485;50.992;5.550;2023-04-09T11:02:01;14.70;99.90
33927;DHT22;20485;50.992;5.550;2023-04-09T11:07:04;14.60;99.90
33927;DHT22;20485;50.992;5.550;2023-04-09T11:09:34;14.20;99.90
33927;DHT22;20485;50.992;5.550;2023-04-09T11:12:00;14.50;99.90
33927;DHT22;20485;50.992;5.550;2023-04-09T11:14:26;14.50;99.90
33927;DHT22;20485;50.992;5.550;2023-04-09T11:16:52;14.60;99.90
33927;DHT22;20485;50.992;5.550;2023-04-09T11:19:19;14.60;99.90
33927;DHT22;20485;50.992;5.550;2023-04-09T11:21:46;14.90;99.90
33927;DHT22;20485;50.992;5.550;2023-04-09T11:24:13;14.90;99.90
33927;DHT22;20485;50.992;5.550;2023-04-09T11:26:39;15.00;99.90
33927;DHT22;20485;50.992;5.550;2023-04-09T11:29:08;15.10;99.90
33927;DHT22;20485;50.992;5.550;2023-04-09T11:31:35;15.20;99.90
33927;DHT22;20485;50.992;5.550;2023-04-09T11:34:02;15.40;99.90
33927;DHT22;20485;50.992;5.550;2023-04-09T11:36:27;15.50;99.90
33927;DHT22;20485;50.992;5.550;2023-04-09T11:38:56;15.40;99.90
33927;DHT22;20485;50.992;5.550;2023-04-09T11:41:38;15.60;99.90
33927;DHT22;20485;50.992;5.550;2023-04-09T11:44:05;15.70;99.90
33927;DHT22;20485;50.992;5.550;2023-04-09T11:46:35;15.70;99.90
33927;DHT22;20485;50.992;5.550;2023-04-09T11:49:02;15.70;99.90
33927;DHT22;20485;50.992;5.550;2023-04-09T11:51:28;15.80;99.90
33927;DHT22;20485;50.992;5.550;2023-04-09T11:54:07;16.10;99.90
33927;DHT22;20485;50.992;5.550;2023-04-09T11:56:34;16.10;99.90
33927;DHT22;20485;50.992;5.550;2023-04-09T11:59:01;15.90;99.90
33927;DHT22;20485;50.992;5.550;2023-04-09T12:01:31;15.80;99.90
33927;DHT22;20485;50.992;5.550;2023-04-09T12:03:57;15.30;99.90
33927;DHT22;20485;50.992;5.550;2023-04-09T12:06:25;15.00;99.90
33927;DHT22;20485;50.992;5.550;2023-04-09T12:08:55;14.80;99.90
33927;DHT22;20485;50.992;5.550;2023-04-09T12:11:30;14.70;99.90
33927;DHT22;20485;50.992;5.550;2023-04-09T12:14:03;14.40;99.90
33927;DHT22;20485;50.992;5.550;2023-04-09T12:16:38;14.90;99.90
33927;DHT22;20485;50.992;5.550;2023-04-09T12:19:10;15.30;99.90
33927;DHT22;20485;50.992;5.550;2023-04-09T12:24:12;16.10;99.90
33927;DHT22;20485;50.992;5.550;2023-04-09T12:26:38;16.40;99.90
33927;DHT22;20485;50.992;5.550;2023-04-09T12:29:04;16.70;99.90
33927;DHT22;20485;50.992;5.550;2023-04-09T12:31:29;16.40;99.90
33927;DHT22;20485;50.992;5.550;2023-04-09T12:33:55;17.00;99.90
33927;DHT22;20485;50.992;5.550;2023-04-09T12:36:21;17.10;99.90
33927;DHT22;20485;50.992;5.550;2023-04-09T12:38:48;17.00;99.90
33927;DHT22;20485;50.992;5.550;2023-04-09T12:41:14;17.00;99.90
33927;DHT22;20485;50.992;5.550;2023-04-09T12:43:40;17.00;99.90
33927;DHT22;20485;50.992;5.550;2023-04-09T12:46:08;17.50;99.90
33927;DHT22;20485;50.992;5.550;2023-04-09T12:48:34;17.80;99.90
33927;DHT22;20485;50.992;5.550;2023-04-09T12:50:59;17.80;99.90
33927;DHT22;20485;50.992;5.550;2023-04-09T12:53:26;18.00;99.90
33927;DHT22;20485;50.992;5.550;2023-04-09T12:55:52;17.80;99.90
33927;DHT22;20485;50.992;5.550;2023-04-09T12:58:17;17.70;99.90
33927;DHT22;20485;50.992;5.550;2023-04-09T13:00:43;17.80;99.90
33927;DHT22;20485;50.992;5.550;2023-04-09T13:03:09;17.60;99.90
33927;DHT22;20485;50.992;5.550;2023-04-09T13:05:34;17.50;99.90
33927;DHT22;20485;50.992;5.550;2023-04-09T13:08:00;18.10;99.90
33927;DHT22;20485;50.992;5.550;2023-04-09T13:10:30;17.20;99.90
33927;DHT22;20485;50.992;5.550;2023-04-09T13:12:55;17.90;99.90
33927;DHT22;20485;50.992;5.550;2023-04-09T13:15:21;17.90;99.90
33927;DHT22;20485;50.992;5.550;2023-04-09T13:17:47;17.10;99.90
33927;DHT22;20485;50.992;5.550;2023-04-09T13:20:13;17.10;99.90
33927;DHT22;20485;50.992;5.550;2023-04-09T13:22:39;17.00;99.90
33927;DHT22;20485;50.992;5.550;2023-04-09T13:25:05;17.00;99.90
33927;DHT22;20485;50.992;5.550;2023-04-09T13:27:31;16.70;99.90
33927;DHT22;20485;50.992;5.550;2023-04-09T13:29:56;16.30;99.90
33927;DHT22;20485;50.992;5.550;2023-04-09T13:32:22;15.90;99.90
33927;DHT22;20485;50.992;5.550;2023-04-09T13:34:49;15.90;99.90
33927;DHT22;20485;50.992;5.550;2023-04-09T13:37:15;16.10;99.90
33927;DHT22;20485;50.992;5.550;2023-04-09T13:39:41;16.30;99.90
33927;DHT22;20485;50.992;5.550;2023-04-09T13:42:07;16.50;99.90
33927;DHT22;20485;50.992;5.550;2023-04-09T13:44:32;16.40;99.90
33927;DHT22;20485;50.992;5.550;2023-04-09T13:46:59;16.30;99.90
33927;DHT22;20485;50.992;5.550;2023-04-09T13:49:25;16.40;99.90
33927;DHT22;20485;50.992;5.550;2023-04-09T13:51:52;16.20;99.90
33927;DHT22;20485;50.992;5.550;2023-04-09T13:54:17;16.10;99.90
33927;DHT22;20485;50.992;5.550;2023-04-09T13:56:44;15.70;99.90
33927;DHT22;20485;50.992;5.550;2023-04-09T13:59:10;15.40;99.90
33927;DHT22;20485;50.992;5.550;2023-04-09T14:01:36;15.40;99.90
33927;DHT22;20485;50.992;5.550;2023-04-09T14:04:02;15.50;99.90
33927;DHT22;20485;50.992;5.550;2023-04-09T14:06:27;15.50;99.90
33927;DHT22;20485;50.992;5.550;2023-04-09T14:08:53;15.10;99.90
33927;DHT22;20485;50.992;5.550;2023-04-09T14:11:20;15.30;99.90
33927;DHT22;20485;50.992;5.550;2023-04-09T14:13:45;15.50;99.90
33927;DHT22;20485;50.992;5.550;2023-04-09T14:16:11;15.70;99.90
33927;DHT22;20485;50.992;5.550;2023-04-09T14:18:37;15.90;99.90
33927;DHT22;20485;50.992;5.550;2023-04-09T14:21:05;16.00;99.90
33927;DHT22;20485;50.992;5.550;2023-04-09T14:23:30;15.50;99.90
33927;DHT22;20485;50.992;5.550;2023-04-09T14:25:56;15.20;99.90
33927;DHT22;20485;50.992;5.550;2023-04-09T14:28:22;14.80;99.90
33927;DHT22;20485;50.992;5.550;2023-04-09T14:30:47;15.10;99.90
33927;DHT22;20485;50.992;5.550;2023-04-09T14:33:13;15.60;99.90
33927;DHT22;20485;50.992;5.550;2023-04-09T14:35:39;15.70;99.90
33927;DHT22;20485;50.992;5.550;2023-04-09T14:38:04;16.30;99.90
33927;DHT22;20485;50.992;5.550;2023-04-09T14:40:31;16.90;99.90
33927;DHT22;20485;50.992;5.550;2023-04-09T14:42:59;16.70;99.90
33927;DHT22;20485;50.992;5.550;2023-04-09T14:45:25;16.60;99.90
33927;DHT22;20485;50.992;5.550;2023-04-09T14:47:51;16.30;99.90
33927;DHT22;20485;50.992;5.550;2023-04-09T14:50:18;16.20;99.90
33927;DHT22;20485;50.992;5.550;2023-04-09T14:52:46;16.10;99.90
33927;DHT22;20485;50.992;5.550;2023-04-09T14:55:13;16.30;99.90
33927;DHT22;20485;50.992;5.550;2023-04-09T14:57:39;16.80;99.90
33927;DHT22;20485;50.992;5.550;2023-04-09T15:00:10;17.20;99.90
33927;DHT22;20485;50.992;5.550;2023-04-09T15:02:36;17.40;99.90
33927;DHT22;20485;50.992;5.550;2023-04-09T15:05:03;17.60;99.90
33927;DHT22;20485;50.992;5.550;2023-04-09T15:07:29;17.30;99.90
33927;DHT22;20485;50.992;5.550;2023-04-09T15:09:56;17.50;99.90
33927;DHT22;20485;50.992;5.550;2023-04-09T15:12:24;17.40;99.90
33927;DHT22;20485;50.992;5.550;2023-04-09T15:14:50;17.20;99.90
33927;DHT22;20485;50.992;5.550;2023-04-09T15:17:16;16.30;99.90
33927;DHT22;20485;50.992;5.550;2023-04-09T15:19:41;16.40;99.90
33927;DHT22;20485;50.992;5.550;2023-04-09T15:22:07;16.30;99.90
33927;DHT22;20485;50.992;5.550;2023-04-09T15:24:33;16.30;99.90
33927;DHT22;20485;50.992;5.550;2023-04-09T15:26:58;16.10;99.90
33927;DHT22;20485;50.992;5.550;2023-04-09T15:29:25;16.00;99.90
33927;DHT22;20485;50.992;5.550;2023-04-09T15:31:54;16.00;99.90
33927;DHT22;20485;50.992;5.550;2023-04-09T15:34:19;16.00;99.90
33927;DHT22;20485;50.992;5.550;2023-04-09T15:36:45;16.20;99.90
33927;DHT22;20485;50.992;5.550;2023-04-09T15:39:11;16.10;99.90
33927;DHT22;20485;50.992;5.550;2023-04-09T15:41:37;15.90;99.90
33927;DHT22;20485;50.992;5.550;2023-04-09T15:44:03;16.00;99.90
33927;DHT22;20485;50.992;5.550;2023-04-09T15:46:28;15.90;99.90
33927;DHT22;20485;50.992;5.550;2023-04-09T15:48:54;16.60;99.90
33927;DHT22;20485;50.992;5.550;2023-04-09T15:51:20;16.60;99.90
33927;DHT22;20485;50.992;5.550;2023-04-09T15:53:46;16.60;99.90
33927;DHT22;20485;50.992;5.550;2023-04-09T15:56:11;16.40;99.90
33927;DHT22;20485;50.992;5.550;2023-04-09T15:58:40;16.20;99.90
33927;DHT22;20485;50.992;5.550;2023-04-09T16:01:09;16.40;99.90
33927;DHT22;20485;50.992;5.550;2023-04-09T16:03:35;16.50;99.90
33927;DHT22;20485;50.992;5.550;2023-04-09T16:06:10;16.30;99.90
33927;DHT22;20485;50.992;5.550;2023-04-09T16:08:38;16.00;99.90